Lakeside City, Texas
Current Conditions -  °F | °C
As of 6:55 PM on Wednesday 22 Oct 2014 (Local Time) from KCWC Reporting Station
Overcast Overcast  
Wind Chill: 73°   Ceiling: 10000
Heat Index: 73°   Visibility: 10mi
Dew Point: 57°   Wind: 0mph
Humidity: 58%   Direction: NA
Pressure: 30.1"   Gusts: NA
Location:  33.838°N, 98.5232°W
Report Text: KCWC 222355Z AUTO 00000KT 10SM SCT080 BKN100 OVC120 23/14 A3010 RMK AO2 T02250139 10260 20222
Loading
Personal Weather Stations






























Interactive Weather Map
Tropical Storm Tracking
New forecast layout! Learn more

10-Day Weather Forecast

Advertisements
Track Severe Weather on mobile